Wasta, South Dakota
Current Conditions -  °F | °C
As of 10:52 PM on Friday 19 Dec 2014 (Local Time) from KRAP Reporting Station
Clear Clear  
Wind Chill: 21°   Ceiling: Unl
Heat Index: 21°   Visibility: 10mi
Dew Point: 16°   Wind: 0mph
Humidity: 81%   Direction: NA
Pressure: 29.91"   Gusts: NA
Location:  44.07°N, 102.45°W
Report Text: KRAP 200552Z AUTO 00000KT 10SM CLR M06/M09 A2991 RMK AO2 SLP153 T10611089 10006 21061 55004
Loading
Personal Weather Stations






























Interactive Weather Map New forecast layout! Learn more

10-Day Weather Forecast

Advertisements
Track Severe Weather on mobile